sim
Sign-in with your pilot id or email,
or register
Callsign
Passwort

Schedule Details

Flight Number: DLH1643
Departure: Gdansk Lech Walesa Airport (EPGD) at 12:15
Arrival: Munich Airport (EDDM) at 13:55
Route: Lufthansa Passenger Schedule. Enter filed route here before submitting Pirep.

Weather Information
Getting current METAR information for EPGD 181230Z 31010KT CAVOK 17/05 Q1028
Getting current METAR information for EDDM 181220Z 09012KT 040V120 CAVOK 19/09 Q1024 NOSIG

Schedule Frequency

Route Map